This is the latest recevied weather packets stored in our database for station/object DL6SW-10. If no packets are shown the sender has not sent any weather packets the latest 1 day(s).
| Time | Temp. | Humidity | Pressure | Rain* | Wind** | Luminosity | Snow |
|---|---|---|---|---|---|---|---|
| 1778097538 | 12.22° C | 77% | 1011.8 hPa | - | - | - | - |
| 1778096639 | 12.22° C | 76% | 1011.2 hPa | - | - | - | - |
| 1778091236 | 12.78° C | 73% | 1011.2 hPa | - | - | - | - |
| 1778089431 | 13.33° C | 72% | 1010.8 hPa | - | - | - | - |
| 1778087625 | 14.44° C | 70% | 1011.2 hPa | - | - | - | - |
| 1778086729 | 14.44° C | 70% | 1010.1 hPa | - | - | - | - |
| 1778086727 | 14.44° C | 70% | 1010.1 hPa | - | - | - | - |
| 1778085825 | 14.44° C | 69% | 1010.7 hPa | - | - | - | - |
| 1778085824 | 14.44° C | 69% | 1010.7 hPa | - | - | - | - |
| 1778084928 | 15° C | 68% | 1010.8 hPa | - | - | - | - |
| 1778084920 | 15° C | 68% | 1010.8 hPa | - | - | - | - |
| 1778084019 | 15.56° C | 67% | 1009.9 hPa | - | - | - | - |
| 1778080414 | 15.56° C | 64% | 1009.8 hPa | - | - | - | - |
| 1778077711 | 17.22° C | 61% | 1009.5 hPa | - | - | - | - |
| 1778075010 | 16.11° C | 58% | 1009.2 hPa | - | - | - | - |
| 1778067810 | 22.22° C | 47% | 1008.6 hPa | - | - | - | - |
| 1778066896 | 22.22° C | 46% | 1008.2 hPa | - | - | - | - |
| 1778065996 | 24.44° C | 45% | 1008.2 hPa | - | - | - | - |
| 1778065102 | 26.67° C | 45% | 1009.1 hPa | - | - | - | - |
| 1778058787 | 23.89° C | 54% | 1009.4 hPa | - | - | - | - |
| 1778057895 | 27.22° C | 54% | 1009.2 hPa | - | - | - | - |
| 1778053380 | 20° C | 71% | 1009.5 hPa | - | - | - | - |
| 1778052483 | 18.33° C | 73% | 1009.9 hPa | - | - | - | - |
| 1778051590 | 17.78° C | 75% | 1009.5 hPa | - | - | - | - |
| 1778051578 | 17.78° C | 75% | 1009.5 hPa | - | - | - | - |
* Rain since midnight (hover to see other rain measurements)
** Current wind speed in m/s (hover to see current wind gust speed)